createdAt,value
2019-05-26T00:01:55.415Z,73.90
2019-05-26T00:04:25.500Z,73.90
2019-05-26T00:06:55.550Z,74.10
2019-05-26T00:09:25.647Z,73.80
2019-05-26T00:11:55.682Z,74.10
2019-05-26T00:14:26.291Z,74.30
2019-05-26T00:16:56.493Z,74.30
2019-05-26T00:19:26.939Z,74.20
2019-05-26T00:21:56.986Z,73.90
2019-05-26T00:24:27.018Z,74.10
2019-05-26T00:26:57.126Z,74.10
2019-05-26T00:29:27.626Z,74.00
2019-05-26T00:31:58.734Z,74.20
2019-05-26T00:34:28.970Z,74.40
2019-05-26T00:36:59.514Z,74.80
2019-05-26T00:39:29.900Z,74.80
2019-05-26T00:42:00.064Z,75.00
2019-05-26T00:44:30.602Z,75.50
2019-05-26T00:47:00.716Z,75.50
2019-05-26T00:49:30.815Z,75.50
2019-05-26T00:52:01.005Z,75.70
2019-05-26T00:54:31.636Z,75.70
2019-05-26T00:57:01.824Z,75.70
2019-05-26T00:59:32.222Z,75.70
2019-05-26T01:02:02.259Z,75.90
2019-05-26T01:04:32.775Z,75.70
2019-05-26T01:07:03.308Z,75.70
2019-05-26T01:09:33.417Z,75.40
2019-05-26T01:12:03.540Z,75.50
2019-05-26T01:14:33.642Z,75.50
2019-05-26T01:17:03.758Z,75.20
2019-05-26T01:19:34.215Z,74.90
2019-05-26T01:22:04.329Z,74.60
2019-05-26T01:24:34.372Z,74.40
2019-05-26T01:27:05.673Z,73.80
2019-05-26T01:29:35.771Z,73.20
2019-05-26T01:32:05.882Z,73.10
2019-05-26T01:34:35.991Z,75.40
2019-05-26T01:37:06.995Z,75.00
2019-05-26T01:39:37.355Z,75.10
2019-05-26T01:42:07.565Z,75.10
2019-05-26T01:44:37.581Z,75.50
2019-05-26T01:47:07.669Z,75.20
2019-05-26T01:49:37.708Z,75.30
2019-05-26T01:52:07.748Z,74.70
2019-05-26T01:54:40.810Z,74.30
2019-05-26T01:57:09.485Z,73.50
2019-05-26T01:59:39.526Z,72.90
2019-05-26T02:02:09.613Z,72.80
2019-05-26T02:04:39.660Z,72.60
2019-05-26T02:07:09.708Z,74.20
2019-05-26T02:09:40.083Z,74.60
2019-05-26T02:12:10.185Z,75.50
2019-05-26T02:14:40.305Z,75.90
2019-05-26T02:17:10.488Z,75.90
2019-05-26T02:19:41.590Z,75.70
2019-05-26T02:22:11.753Z,74.60
2019-05-26T02:24:42.134Z,75.20
2019-05-26T02:27:12.242Z,75.00
2019-05-26T02:29:42.301Z,75.10
2019-05-26T02:32:12.326Z,75.20
2019-05-26T02:34:42.377Z,74.50
2019-05-26T02:37:12.403Z,74.40
2019-05-26T02:39:43.277Z,74.90
2019-05-26T02:42:13.375Z,75.00
2019-05-26T02:44:43.462Z,75.80
2019-05-26T02:47:13.544Z,75.20
2019-05-26T02:49:43.725Z,75.70
2019-05-26T02:52:13.748Z,74.90
2019-05-26T02:54:43.797Z,75.60
2019-05-26T02:57:13.828Z,75.60
2019-05-26T02:59:43.997Z,75.80
2019-05-26T03:02:14.168Z,75.50
2019-05-26T03:04:44.590Z,76.30
2019-05-26T03:07:15.254Z,76.40
2019-05-26T03:09:46.647Z,76.10
2019-05-26T03:12:18.811Z,76.70
2019-05-26T03:14:52.523Z,76.70
2019-05-26T03:17:24.360Z,76.80
2019-05-26T03:19:56.545Z,76.80
2019-05-26T03:22:29.488Z,75.90
2019-05-26T03:25:01.505Z,76.00
2019-05-26T03:27:31.519Z,75.70
2019-05-26T03:30:01.949Z,75.10
2019-05-26T03:32:32.073Z,75.10
2019-05-26T03:35:02.181Z,75.50
2019-05-26T03:37:32.603Z,73.50
2019-05-26T03:40:05.619Z,73.40
2019-05-26T03:42:36.085Z,72.90
2019-05-26T03:45:09.867Z,73.90
2019-05-26T03:47:40.018Z,73.50
2019-05-26T03:50:10.322Z,73.70
2019-05-26T03:52:40.359Z,74.90
2019-05-26T03:55:10.812Z,74.60
2019-05-26T03:57:40.866Z,75.40
2019-05-26T04:00:11.332Z,75.00
2019-05-26T04:02:41.434Z,75.20
2019-05-26T04:05:12.010Z,75.20
2019-05-26T04:07:42.047Z,76.00
2019-05-26T04:10:12.298Z,75.80
2019-05-26T04:12:42.775Z,75.70
2019-05-26T04:15:13.513Z,75.40
2019-05-26T04:17:43.848Z,75.60
2019-05-26T04:20:14.039Z,75.50
2019-05-26T04:22:44.493Z,75.90
2019-05-26T04:25:15.010Z,76.10
2019-05-26T04:27:45.030Z,76.00
2019-05-26T04:30:15.220Z,76.30
2019-05-26T04:32:45.317Z,76.40
2019-05-26T04:35:15.811Z,77.40
2019-05-26T04:37:45.838Z,77.00
2019-05-26T04:40:26.290Z,77.00
2019-05-26T04:42:47.603Z,77.00
2019-05-26T04:45:17.703Z,77.10
2019-05-26T04:47:47.747Z,77.20
2019-05-26T04:50:17.841Z,77.00
2019-05-26T04:53:04.649Z,76.90
2019-05-26T04:55:19.606Z,76.80
2019-05-26T04:57:49.789Z,76.20
2019-05-26T05:00:20.075Z,76.50
2019-05-26T05:02:50.245Z,75.90
2019-05-26T05:05:20.329Z,75.10
2019-05-26T05:07:50.730Z,75.10
2019-05-26T05:10:20.833Z,74.90
2019-05-26T05:12:50.933Z,75.40
2019-05-26T05:15:21.417Z,75.90
2019-05-26T05:17:51.822Z,75.50
2019-05-26T05:20:21.927Z,75.00
2019-05-26T05:22:52.371Z,75.30
2019-05-26T05:25:22.408Z,74.60
2019-05-26T05:27:53.517Z,75.00
2019-05-26T05:30:24.063Z,74.40
2019-05-26T05:32:54.123Z,74.90
2019-05-26T05:35:24.290Z,75.20
2019-05-26T05:37:54.385Z,76.00
2019-05-26T05:40:24.556Z,75.30
2019-05-26T05:42:54.581Z,76.30
2019-05-26T05:45:24.687Z,76.20
2019-05-26T05:47:54.731Z,75.90
2019-05-26T05:50:24.910Z,76.20
2019-05-26T05:52:55.013Z,76.20
2019-05-26T05:55:25.121Z,76.50
2019-05-26T05:57:55.168Z,76.30
2019-05-26T06:00:25.633Z,76.00
2019-05-26T06:02:55.925Z,76.30
2019-05-26T06:05:26.363Z,75.50
2019-05-26T06:07:56.407Z,76.20
2019-05-26T06:10:26.470Z,76.30
2019-05-26T06:12:56.517Z,76.20
2019-05-26T06:15:26.625Z,76.30
2019-05-26T06:17:56.727Z,76.30
2019-05-26T06:20:26.841Z,75.90
2019-05-26T06:22:57.290Z,75.40
2019-05-26T06:25:27.736Z,75.30
2019-05-26T06:27:57.863Z,74.70
2019-05-26T06:30:28.474Z,74.80
2019-05-26T06:32:58.498Z,75.30
2019-05-26T06:35:32.302Z,74.40
2019-05-26T06:38:00.275Z,74.40
2019-05-26T06:40:30.381Z,73.80
2019-05-26T06:43:00.502Z,73.70
2019-05-26T06:45:30.765Z,73.50
2019-05-26T06:48:00.801Z,73.10
2019-05-26T06:50:30.903Z,73.40
2019-05-26T06:53:00.963Z,72.20
2019-05-26T06:55:30.975Z,71.90
2019-05-26T06:58:01.026Z,72.20
2019-05-26T07:00:31.137Z,72.20
2019-05-26T07:03:01.167Z,71.40
2019-05-26T07:05:31.280Z,70.60
2019-05-26T07:08:01.466Z,70.90
2019-05-26T07:10:31.589Z,70.00
2019-05-26T07:13:01.709Z,69.00
2019-05-26T07:15:31.746Z,68.60
2019-05-26T07:18:02.174Z,67.90
2019-05-26T07:20:32.277Z,68.10
2019-05-26T07:23:02.614Z,67.00
2019-05-26T07:25:32.730Z,66.00
2019-05-26T07:28:02.762Z,65.60
2019-05-26T07:30:33.288Z,65.60
2019-05-26T07:33:03.526Z,65.70
2019-05-26T07:35:34.832Z,65.70
2019-05-26T07:38:04.952Z,65.60
2019-05-26T07:40:35.072Z,65.60
2019-05-26T07:43:05.550Z,65.60
2019-05-26T07:45:35.917Z,65.00
2019-05-26T07:48:06.406Z,64.80
2019-05-26T07:50:36.914Z,65.80
2019-05-26T07:53:07.014Z,64.60
2019-05-26T07:55:37.048Z,63.80
2019-05-26T07:58:07.574Z,63.20
2019-05-26T08:00:37.698Z,63.10
2019-05-26T08:03:07.733Z,62.80
2019-05-26T08:05:37.770Z,62.40
2019-05-26T08:08:13.010Z,62.30
2019-05-26T08:10:39.909Z,62.20
2019-05-26T08:13:10.341Z,61.90
2019-05-26T08:15:40.466Z,61.80
2019-05-26T08:18:10.512Z,62.10
2019-05-26T08:20:42.257Z,62.10
2019-05-26T08:23:12.378Z,61.90
2019-05-26T08:25:42.845Z,61.60
2019-05-26T08:28:13.013Z,61.40
2019-05-26T08:30:43.421Z,61.10
2019-05-26T08:33:13.864Z,59.90
2019-05-26T08:35:43.971Z,59.60
2019-05-26T08:38:14.331Z,58.60
2019-05-26T08:40:44.746Z,57.60
2019-05-26T08:43:15.154Z,58.30
2019-05-26T08:45:45.295Z,58.50
2019-05-26T08:48:15.766Z,58.60
2019-05-26T08:50:47.363Z,58.10
2019-05-26T08:53:17.383Z,57.50
2019-05-26T08:55:47.468Z,57.70
2019-05-26T08:58:17.688Z,57.80
2019-05-26T09:00:48.791Z,57.30
2019-05-26T09:03:18.954Z,57.10
2019-05-26T09:05:49.173Z,56.90
2019-05-26T09:08:19.690Z,56.70
2019-05-26T09:10:50.133Z,56.90
2019-05-26T09:13:20.558Z,55.50
2019-05-26T09:15:50.984Z,55.80
2019-05-26T09:18:21.104Z,55.10
2019-05-26T09:20:51.202Z,55.00
2019-05-26T09:23:21.290Z,54.70
2019-05-26T09:25:51.796Z,53.80
2019-05-26T09:28:21.827Z,54.20
2019-05-26T09:30:52.240Z,53.50
2019-05-26T09:33:22.261Z,53.40
2019-05-26T09:35:52.782Z,53.40
2019-05-26T09:38:23.782Z,52.40
2019-05-26T09:40:53.801Z,52.30
2019-05-26T09:43:23.856Z,51.20
2019-05-26T09:45:53.881Z,51.90
2019-05-26T09:48:24.308Z,51.30
2019-05-26T09:50:54.354Z,50.40
2019-05-26T09:53:24.381Z,49.60
2019-05-26T09:55:54.491Z,49.70
2019-05-26T09:58:24.524Z,48.50
2019-05-26T10:00:54.725Z,48.90
2019-05-26T10:03:24.827Z,48.80
2019-05-26T10:05:55.928Z,47.50
2019-05-26T10:08:26.028Z,48.70
2019-05-26T10:10:56.148Z,48.60
2019-05-26T10:13:31.848Z,48.10
2019-05-26T10:15:58.400Z,48.30
2019-05-26T10:18:28.491Z,48.20
2019-05-26T10:20:58.528Z,48.80
2019-05-26T10:23:28.550Z,48.60
2019-05-26T10:25:58.969Z,48.60
2019-05-26T10:28:28.994Z,49.00
2019-05-26T10:30:59.031Z,49.20
2019-05-26T10:33:29.073Z,49.00
2019-05-26T10:35:59.455Z,48.70
2019-05-26T10:38:29.568Z,48.80
2019-05-26T10:40:59.702Z,48.30
2019-05-26T10:43:29.738Z,49.00
2019-05-26T10:45:59.855Z,49.10
2019-05-26T10:48:29.897Z,49.20
2019-05-26T10:50:59.985Z,49.60
2019-05-26T10:53:30.362Z,49.00
2019-05-26T10:56:00.458Z,49.20
2019-05-26T10:58:31.756Z,49.70
2019-05-26T11:01:01.940Z,49.00
2019-05-26T11:03:32.505Z,49.90
2019-05-26T11:06:02.929Z,49.70
2019-05-26T11:08:33.262Z,50.00
2019-05-26T11:11:03.336Z,49.80
2019-05-26T11:13:34.492Z,48.90
2019-05-26T11:16:05.061Z,49.70
2019-05-26T11:18:35.237Z,49.00
2019-05-26T11:21:05.793Z,49.60
2019-05-26T11:23:35.846Z,49.30
2019-05-26T11:26:06.315Z,49.90
2019-05-26T11:28:36.342Z,50.20
2019-05-26T11:31:06.459Z,50.40
2019-05-26T11:33:36.958Z,50.70
2019-05-26T11:36:07.045Z,50.70
2019-05-26T11:38:37.091Z,50.20
2019-05-26T11:41:07.247Z,50.60
2019-05-26T11:43:37.267Z,50.40
2019-05-26T11:46:08.397Z,50.20
2019-05-26T11:48:39.252Z,50.80
2019-05-26T11:51:09.877Z,50.90
2019-05-26T11:53:39.892Z,50.80
2019-05-26T11:56:10.248Z,50.20
2019-05-26T11:58:40.336Z,50.40
2019-05-26T12:01:10.458Z,50.70
2019-05-26T12:03:40.678Z,49.50
2019-05-26T12:06:10.798Z,50.30
2019-05-26T12:08:41.326Z,50.60
2019-05-26T12:11:11.450Z,49.90
2019-05-26T12:13:41.879Z,49.90
2019-05-26T12:16:12.173Z,50.50
2019-05-26T12:18:42.420Z,49.60
2019-05-26T12:21:12.771Z,49.50
2019-05-26T12:23:43.194Z,49.80
2019-05-26T12:26:13.381Z,49.30
2019-05-26T12:28:43.423Z,49.10
2019-05-26T12:31:13.775Z,47.90
2019-05-26T12:33:43.795Z,49.30
2019-05-26T12:36:14.896Z,48.90
2019-05-26T12:38:54.273Z,48.90
2019-05-26T12:41:24.436Z,49.00
2019-05-26T12:43:54.554Z,48.00
2019-05-26T12:46:25.027Z,46.60
2019-05-26T12:48:55.338Z,46.40
2019-05-26T12:51:25.424Z,47.20
2019-05-26T12:53:55.462Z,47.60
2019-05-26T12:56:25.914Z,49.30
2019-05-26T12:58:56.445Z,49.50
2019-05-26T13:01:26.626Z,50.10
2019-05-26T13:03:56.690Z,50.50
2019-05-26T13:06:27.115Z,51.00
2019-05-26T13:08:57.147Z,50.90
2019-05-26T13:11:27.245Z,50.80
2019-05-26T13:13:57.358Z,50.90
2019-05-26T13:16:27.476Z,50.80
2019-05-26T13:18:57.920Z,51.20
2019-05-26T13:21:27.938Z,50.80
2019-05-26T13:23:58.058Z,51.20
2019-05-26T13:26:28.086Z,51.20
2019-05-26T13:28:58.184Z,51.20
2019-05-26T13:31:28.229Z,51.20
2019-05-26T13:33:58.322Z,51.20
2019-05-26T13:36:28.372Z,51.60
2019-05-26T13:38:58.770Z,51.80
2019-05-26T13:41:28.812Z,51.80
2019-05-26T13:43:58.837Z,51.40
2019-05-26T13:46:28.891Z,51.60
2019-05-26T13:48:59.351Z,52.00
2019-05-26T13:51:29.782Z,52.20
2019-05-26T13:54:00.017Z,52.00
2019-05-26T13:56:30.542Z,52.40
2019-05-26T13:59:00.588Z,52.00
2019-05-26T14:01:30.626Z,52.00
2019-05-26T14:04:01.112Z,52.30
2019-05-26T14:06:31.138Z,52.00
2019-05-26T14:09:02.363Z,52.40
2019-05-26T14:11:34.353Z,52.40
2019-05-26T14:14:05.157Z,51.80
2019-05-26T14:16:35.436Z,52.20
2019-05-26T14:19:06.423Z,52.70
2019-05-26T14:21:36.949Z,52.40
2019-05-26T14:24:07.189Z,52.30
2019-05-26T14:26:37.215Z,51.50
2019-05-26T14:29:07.439Z,51.80
2019-05-26T14:31:37.467Z,52.10
2019-05-26T14:34:07.904Z,52.20
2019-05-26T14:36:37.973Z,51.60
2019-05-26T14:39:09.838Z,51.00
2019-05-26T14:41:39.977Z,50.10
2019-05-26T14:44:10.388Z,50.50
2019-05-26T14:46:40.482Z,50.00
2019-05-26T14:49:10.513Z,50.20
2019-05-26T14:51:40.964Z,49.40
2019-05-26T14:54:11.063Z,49.60
2019-05-26T14:56:41.113Z,48.90
2019-05-26T14:59:11.226Z,47.60
2019-05-26T15:01:41.270Z,46.90
2019-05-26T15:04:11.438Z,46.70
2019-05-26T15:06:41.797Z,46.50
2019-05-26T15:09:24.284Z,45.80
2019-05-26T15:11:43.634Z,45.70
2019-05-26T15:14:13.674Z,46.40
2019-05-26T15:16:44.089Z,47.70
2019-05-26T15:19:14.514Z,48.10
2019-05-26T15:21:44.641Z,48.20
2019-05-26T15:24:14.667Z,48.40
2019-05-26T15:26:45.022Z,48.40
2019-05-26T15:29:15.133Z,49.10
2019-05-26T15:31:45.531Z,49.20
2019-05-26T15:34:15.949Z,49.50
2019-05-26T15:36:45.983Z,49.90
2019-05-26T15:39:16.116Z,49.90
2019-05-26T15:41:46.519Z,50.10
2019-05-26T15:44:16.596Z,50.30
2019-05-26T15:46:46.762Z,50.70
2019-05-26T15:49:16.888Z,50.70
2019-05-26T15:51:47.794Z,51.20
2019-05-26T15:54:17.897Z,50.80
2019-05-26T15:56:47.931Z,50.50
2019-05-26T15:59:18.017Z,51.20
2019-05-26T16:01:48.513Z,51.10
2019-05-26T16:04:18.934Z,50.40
2019-05-26T16:06:48.959Z,50.50
2019-05-26T16:09:18.996Z,50.70
2019-05-26T16:11:49.050Z,50.70
2019-05-26T16:14:19.515Z,50.90
2019-05-26T16:16:51.405Z,51.10
2019-05-26T16:19:21.813Z,51.90
2019-05-26T16:21:51.921Z,51.50
2019-05-26T16:24:21.973Z,51.40
2019-05-26T16:26:52.362Z,52.20
2019-05-26T16:29:22.467Z,51.70
2019-05-26T16:31:52.504Z,50.60
2019-05-26T16:34:22.530Z,50.90
2019-05-26T16:36:52.943Z,51.50
2019-05-26T16:39:36.051Z,50.90
2019-05-26T16:41:55.139Z,50.70
2019-05-26T16:44:25.169Z,51.00
2019-05-26T16:46:56.829Z,51.30
2019-05-26T16:49:26.872Z,51.20
2019-05-26T16:51:56.890Z,50.80
2019-05-26T16:54:26.929Z,51.20
2019-05-26T16:56:56.973Z,51.60
2019-05-26T16:59:27.034Z,52.00
2019-05-26T17:01:57.141Z,51.70
2019-05-26T17:04:27.532Z,51.50
2019-05-26T17:06:57.954Z,50.70
2019-05-26T17:09:28.382Z,50.00
2019-05-26T17:11:58.415Z,50.00
2019-05-26T17:14:28.930Z,50.10
2019-05-26T17:17:13.633Z,50.00
2019-05-26T17:19:31.131Z,50.60
2019-05-26T17:22:01.153Z,51.00
2019-05-26T17:24:31.274Z,51.20
2019-05-26T17:27:01.621Z,51.20
2019-05-26T17:29:32.621Z,51.60
2019-05-26T17:32:02.674Z,51.90
2019-05-26T17:34:32.699Z,52.30
2019-05-26T17:37:02.745Z,52.60
2019-05-26T17:39:33.215Z,52.90
2019-05-26T17:42:03.253Z,53.40
2019-05-26T17:44:33.638Z,53.20
2019-05-26T17:47:03.750Z,53.30
2019-05-26T17:49:34.191Z,53.50
2019-05-26T17:52:04.294Z,53.80
2019-05-26T17:54:34.486Z,54.00
2019-05-26T17:57:04.669Z,54.20
2019-05-26T17:59:34.789Z,54.20
2019-05-26T18:02:05.406Z,54.50
2019-05-26T18:04:35.591Z,54.60
2019-05-26T18:07:05.862Z,54.80
2019-05-26T18:09:44.009Z,54.20
2019-05-26T18:12:07.749Z,54.50
2019-05-26T18:14:38.871Z,54.10
2019-05-26T18:17:08.969Z,54.10
2019-05-26T18:19:39.418Z,54.20
2019-05-26T18:22:09.610Z,53.90
2019-05-26T18:24:46.093Z,54.00
2019-05-26T18:27:12.131Z,54.30
2019-05-26T18:29:42.280Z,54.00
2019-05-26T18:32:12.655Z,54.00
2019-05-26T18:34:42.767Z,54.70
2019-05-26T18:37:12.811Z,55.10
2019-05-26T18:39:42.981Z,55.20
2019-05-26T18:42:13.096Z,55.20
2019-05-26T18:44:43.217Z,55.40
2019-05-26T18:47:14.423Z,55.60
2019-05-26T18:49:44.946Z,55.80
2019-05-26T18:52:15.999Z,55.90
2019-05-26T18:54:46.163Z,56.10
2019-05-26T18:57:16.261Z,56.30
2019-05-26T18:59:46.305Z,56.40
2019-05-26T19:02:16.427Z,56.80
2019-05-26T19:04:46.448Z,56.90
2019-05-26T19:07:17.065Z,57.00
2019-05-26T19:09:48.244Z,57.10
2019-05-26T19:12:19.212Z,57.10
2019-05-26T19:14:49.274Z,57.30
2019-05-26T19:17:19.752Z,57.20
2019-05-26T19:19:49.907Z,57.30
2019-05-26T19:22:20.075Z,57.30
2019-05-26T19:24:50.147Z,57.20
2019-05-26T19:27:20.540Z,57.20
2019-05-26T19:29:50.959Z,57.30
2019-05-26T19:32:21.402Z,57.90
2019-05-26T19:34:51.707Z,57.70
2019-05-26T19:37:21.787Z,57.90
2019-05-26T19:39:51.972Z,57.70
2019-05-26T19:42:22.442Z,57.70
2019-05-26T19:44:53.390Z,57.20
2019-05-26T19:47:23.947Z,57.10
2019-05-26T19:49:54.147Z,57.20
2019-05-26T19:52:24.329Z,56.80
2019-05-26T19:54:54.636Z,57.10
2019-05-26T19:57:24.967Z,56.80
2019-05-26T19:59:55.148Z,56.70
2019-05-26T20:02:25.811Z,56.70
2019-05-26T20:04:55.994Z,56.90
2019-05-26T20:07:26.183Z,56.40
2019-05-26T20:09:56.356Z,56.30
2019-05-26T20:12:26.902Z,56.00
2019-05-26T20:14:58.452Z,55.90
2019-05-26T20:17:30.110Z,56.20
2019-05-26T20:20:00.345Z,55.70
2019-05-26T20:22:30.543Z,55.50
2019-05-26T20:25:01.079Z,55.30
2019-05-26T20:27:31.332Z,55.90
2019-05-26T20:30:01.523Z,55.30
2019-05-26T20:32:31.878Z,54.70
2019-05-26T20:35:02.055Z,54.60
2019-05-26T20:37:32.334Z,53.70
2019-05-26T20:40:02.505Z,53.40
2019-05-26T20:42:32.630Z,53.40
2019-05-26T20:45:02.727Z,53.50
2019-05-26T20:47:32.762Z,53.80
2019-05-26T20:50:03.535Z,53.30
2019-05-26T20:52:33.586Z,53.50
2019-05-26T20:55:07.226Z,53.40
2019-05-26T20:57:37.251Z,53.40
2019-05-26T21:00:10.143Z,53.40
2019-05-26T21:02:41.339Z,53.40
2019-05-26T21:05:11.837Z,53.30
2019-05-26T21:07:41.871Z,53.20
2019-05-26T21:10:12.262Z,53.10
2019-05-26T21:12:42.682Z,53.40
2019-05-26T21:15:13.270Z,53.10
2019-05-26T21:17:43.849Z,53.10
2019-05-26T21:20:14.216Z,52.90
2019-05-26T21:22:44.269Z,53.00
2019-05-26T21:25:16.202Z,52.60
2019-05-26T21:27:46.261Z,52.90
2019-05-26T21:30:16.630Z,53.30
2019-05-26T21:32:46.754Z,53.30
2019-05-26T21:35:17.228Z,53.00
2019-05-26T21:37:47.747Z,52.90
2019-05-26T21:40:17.959Z,53.40
2019-05-26T21:42:48.395Z,53.80
2019-05-26T21:45:19.244Z,53.10
2019-05-26T21:47:49.304Z,53.40
2019-05-26T21:50:19.886Z,53.70
2019-05-26T21:52:50.309Z,53.70
2019-05-26T21:55:20.783Z,53.20
2019-05-26T21:57:50.829Z,52.80
2019-05-26T22:00:24.110Z,52.80
2019-05-26T22:02:55.105Z,52.70
2019-05-26T22:05:25.138Z,53.10
2019-05-26T22:07:55.168Z,53.50
2019-05-26T22:10:26.299Z,53.00
2019-05-26T22:12:56.460Z,52.80
2019-05-26T22:15:26.605Z,53.70
2019-05-26T22:17:57.349Z,52.90
2019-05-26T22:20:27.881Z,52.90
2019-05-26T22:22:57.905Z,53.20
2019-05-26T22:25:28.177Z,53.40
2019-05-26T22:27:58.337Z,53.30
2019-05-26T22:30:28.447Z,53.60
2019-05-26T22:32:58.536Z,54.00
2019-05-26T22:35:28.626Z,54.40
2019-05-26T22:37:58.748Z,53.70
2019-05-26T22:40:28.856Z,53.80
2019-05-26T22:42:58.888Z,54.70
2019-05-26T22:45:29.277Z,54.10
2019-05-26T22:47:59.310Z,54.20
2019-05-26T22:50:29.824Z,54.10
2019-05-26T22:52:59.917Z,54.60
2019-05-26T22:55:30.478Z,55.00
2019-05-26T22:58:00.514Z,55.10
2019-05-26T23:00:30.690Z,55.10
2019-05-26T23:03:00.843Z,55.60
2019-05-26T23:05:31.375Z,55.20
2019-05-26T23:08:01.416Z,55.20
2019-05-26T23:10:31.446Z,55.70
2019-05-26T23:13:01.491Z,55.50
2019-05-26T23:15:31.527Z,55.60
2019-05-26T23:18:01.614Z,56.10
2019-05-26T23:20:31.779Z,55.90
2019-05-26T23:23:02.303Z,56.30
2019-05-26T23:25:32.714Z,56.60
2019-05-26T23:28:03.155Z,56.90
2019-05-26T23:30:33.212Z,56.80
2019-05-26T23:33:03.312Z,56.90
2019-05-26T23:35:33.348Z,57.10
2019-05-26T23:38:03.739Z,57.30
2019-05-26T23:40:34.274Z,57.60
2019-05-26T23:43:04.308Z,57.60
2019-05-26T23:45:34.461Z,57.80
2019-05-26T23:48:05.051Z,57.90
2019-05-26T23:50:35.460Z,57.80
2019-05-26T23:53:05.651Z,58.50
2019-05-26T23:55:35.677Z,58.90
2019-05-26T23:58:06.150Z,59.10
